Time,TemperatureF,DewpointF,PressureIn,WindDirection,WindDirectionDegrees,WindSpeedMPH,WindSpeedGustMPH,Humidity,HourlyPrecipIn,Conditions,Clouds,dailyrainin,SoftwareType,DateUTC
2013-08-01 00:02:00,67.0,65.0,30.04,North,360,0.0,-999.0,93,-99.99,,,-99.99,,2013-08-01 05:02:00,
2013-08-01 00:13:00,67.0,65.0,30.04,North,360,0.0,-999.0,93,-99.99,,,-99.99,,2013-08-01 05:13:00,
2013-08-01 00:22:00,67.0,65.0,30.04,North,360,0.0,-999.0,94,-99.99,,,-99.99,,2013-08-01 05:22:00,
2013-08-01 00:33:00,67.0,65.0,30.04,North,360,0.0,-999.0,94,-99.99,,,-99.99,,2013-08-01 05:33:00,
2013-08-01 00:43:00,67.0,65.0,30.04,North,360,0.0,-999.0,94,-99.99,,,-99.99,,2013-08-01 05:43:00,
2013-08-01 00:53:00,66.0,64.0,30.04,North,360,0.0,-999.0,94,-99.99,,,-99.99,,2013-08-01 05:53:00,
2013-08-01 01:02:00,66.0,64.0,30.04,North,360,0.0,-999.0,94,-99.99,,,-99.99,,2013-08-01 06:02:00,
2013-08-01 01:12:00,66.0,64.0,30.03,North,360,0.0,-999.0,94,-99.99,,,-99.99,,2013-08-01 06:12:00,
2013-08-01 01:22:00,66.0,64.0,30.03,North,360,0.0,-999.0,94,-99.99,,,-99.99,,2013-08-01 06:22:00,
2013-08-01 01:33:00,66.0,64.0,30.03,North,360,0.0,-999.0,94,-99.99,,,-99.99,,2013-08-01 06:33:00,
2013-08-01 01:42:00,65.0,63.0,30.03,North,360,0.0,-999.0,94,-99.99,,,-99.99,,2013-08-01 06:42:00,
2013-08-01 01:52:00,65.0,63.0,30.03,North,360,0.0,-999.0,94,-99.99,,,-99.99,,2013-08-01 06:52:00,
2013-08-01 02:02:00,65.0,63.0,30.03,North,360,0.0,-999.0,94,-99.99,,,-99.99,,2013-08-01 07:02:00,
2013-08-01 02:12:00,65.0,64.0,30.03,North,360,0.0,-999.0,95,-99.99,,,-99.99,,2013-08-01 07:12:00,
2013-08-01 02:22:00,65.0,63.0,30.03,North,360,0.0,-999.0,94,-99.99,,,-99.99,,2013-08-01 07:22:00,
2013-08-01 02:32:00,65.0,63.0,30.03,North,360,0.0,-999.0,94,-99.99,,,-99.99,,2013-08-01 07:32:00,
2013-08-01 02:43:00,64.0,63.0,30.03,North,360,0.0,-999.0,95,-99.99,,,-99.99,,2013-08-01 07:43:00,
2013-08-01 02:53:00,64.0,63.0,30.03,North,360,0.0,-999.0,95,-99.99,,,-99.99,,2013-08-01 07:53:00,
2013-08-01 03:04:00,64.0,63.0,30.03,North,360,0.0,-999.0,95,-99.99,,,-99.99,,2013-08-01 08:04:00,
2013-08-01 03:15:00,64.0,63.0,30.03,North,360,0.0,-999.0,95,-99.99,,,-99.99,,2013-08-01 08:15:00,
2013-08-01 03:23:00,64.0,63.0,30.04,North,360,0.0,-999.0,95,-99.99,,,-99.99,,2013-08-01 08:23:00,
2013-08-01 03:36:00,64.0,63.0,30.04,North,360,0.0,-999.0,95,-99.99,,,-99.99,,2013-08-01 08:36:00,
2013-08-01 03:44:00,64.0,63.0,30.04,North,360,0.0,-999.0,95,-99.99,,,-99.99,,2013-08-01 08:44:00,
2013-08-01 04:28:00,64.0,63.0,30.04,North,360,0.0,-999.0,95,-99.99,,,-99.99,,2013-08-01 09:28:00,
2013-08-01 04:56:00,63.0,62.0,30.04,North,360,0.0,-999.0,95,-99.99,,,-99.99,,2013-08-01 09:56:00,
2013-08-01 05:09:00,63.0,62.0,30.04,North,360,0.0,-999.0,95,-99.99,,,-99.99,,2013-08-01 10:09:00,
2013-08-01 05:19:00,64.0,63.0,30.04,North,360,0.0,-999.0,96,-99.99,,,-99.99,,2013-08-01 10:19:00,
2013-08-01 05:24:00,65.0,64.0,30.05,North,360,0.0,-999.0,95,-99.99,,,-99.99,,2013-08-01 10:24:00,
2013-08-01 05:40:00,65.0,64.0,30.05,North,360,0.0,-999.0,95,-99.99,,,-99.99,,2013-08-01 10:40:00,
2013-08-01 05:51:00,65.0,64.0,30.05,North,360,0.0,-999.0,95,-99.99,,,-99.99,,2013-08-01 10:51:00,
2013-08-01 06:11:00,65.0,64.0,30.05,North,360,0.0,-999.0,95,-99.99,,,-99.99,,2013-08-01 11:11:00,
2013-08-01 06:18:00,65.0,64.0,30.06,North,360,0.0,-999.0,95,-99.99,,,-99.99,,2013-08-01 11:18:00,
2013-08-01 06:29:00,65.0,64.0,30.06,North,360,0.0,-999.0,95,-99.99,,,-99.99,,2013-08-01 11:29:00,
2013-08-01 06:39:00,65.0,64.0,30.06,North,360,0.0,-999.0,95,-99.99,,,-99.99,,2013-08-01 11:39:00,
2013-08-01 06:48:00,65.0,64.0,30.06,North,360,0.0,-999.0,96,-99.99,,,-99.99,,2013-08-01 11:48:00,
2013-08-01 06:58:00,64.0,63.0,30.06,North,360,0.0,-999.0,95,-99.99,,,-99.99,,2013-08-01 11:58:00,
2013-08-01 07:11:00,64.0,63.0,30.06,North,360,0.0,-999.0,95,-99.99,,,-99.99,,2013-08-01 12:11:00,
2013-08-01 07:29:00,65.0,64.0,30.06,WNW,296,0.0,-999.0,96,-99.99,,,-99.99,,2013-08-01 12:29:00,
2013-08-01 07:35:00,65.0,64.0,30.06,WNW,296,0.0,-999.0,96,-99.99,,,-99.99,,2013-08-01 12:35:00,
2013-08-01 07:45:00,65.0,64.0,30.06,WNW,296,0.0,-999.0,96,-99.99,,,-99.99,,2013-08-01 12:45:00,
2013-08-01 08:10:00,65.0,64.0,30.05,North,360,0.0,-999.0,96,-99.99,,,-99.99,,2013-08-01 13:10:00,
2013-08-01 08:19:00,66.0,65.0,30.06,NNW,331,0.0,-999.0,96,-99.99,,,-99.99,,2013-08-01 13:19:00,
2013-08-01 08:28:00,67.0,66.0,30.06,NNW,331,0.0,-999.0,96,-99.99,,,-99.99,,2013-08-01 13:28:00,
2013-08-01 08:38:00,67.0,66.0,30.06,NNW,331,0.0,-999.0,96,-99.99,,,-99.99,,2013-08-01 13:38:00,
2013-08-01 08:47:00,68.0,67.0,30.06,NNW,331,0.0,-999.0,96,-99.99,,,-99.99,,2013-08-01 13:47:00,
2013-08-01 08:57:00,69.0,68.0,30.07,NNW,348,0.0,-999.0,96,-99.99,,,-99.99,,2013-08-01 13:57:00,
2013-08-01 10:09:00,72.0,70.0,30.06,NNW,348,0.0,-999.0,95,-99.99,,,-99.99,,2013-08-01 15:09:00,
2013-08-01 10:26:00,76.0,73.0,30.06,NNW,348,0.0,-999.0,89,-99.99,,,-99.99,,2013-08-01 15:26:00,
2013-08-01 10:38:00,76.0,73.0,30.06,NNW,348,0.0,-999.0,89,-99.99,,,-99.99,,2013-08-01 15:38:00,
2013-08-01 10:47:00,77.0,72.0,30.05,NNW,348,0.0,-999.0,86,-99.99,,,-99.99,,2013-08-01 15:47:00,
2013-08-01 10:55:00,77.0,72.0,30.05,NNW,348,0.0,-999.0,86,-99.99,,,-99.99,,2013-08-01 15:55:00,
2013-08-01 11:04:00,79.0,73.0,30.05,NNW,348,0.0,-999.0,81,-99.99,,,-99.99,,2013-08-01 16:04:00,
2013-08-01 11:25:00,81.0,73.0,30.05,NNW,348,0.0,-999.0,76,-99.99,,,-99.99,,2013-08-01 16:25:00,
2013-08-01 12:18:00,83.0,72.0,30.04,SW,215,0.0,-999.0,69,-99.99,,,-99.99,,2013-08-01 17:18:00,
2013-08-01 12:28:00,84.0,71.0,30.04,SW,215,0.0,-999.0,65,-99.99,,,-99.99,,2013-08-01 17:28:00,
2013-08-01 12:57:00,85.0,72.0,30.03,SW,215,0.0,-999.0,65,-99.99,,,-99.99,,2013-08-01 17:57:00,
2013-08-01 13:17:00,85.0,72.0,30.03,SW,215,0.0,-999.0,65,-99.99,,,-99.99,,2013-08-01 18:17:00,
2013-08-01 13:28:00,86.0,71.0,30.03,SW,215,0.0,-999.0,62,-99.99,,,-99.99,,2013-08-01 18:28:00,
2013-08-01 13:38:00,86.0,71.0,30.03,SW,215,0.0,-999.0,62,-99.99,,,-99.99,,2013-08-01 18:38:00,
2013-08-01 13:50:00,86.0,70.0,30.03,SW,215,0.0,-999.0,59,-99.99,,,-99.99,,2013-08-01 18:50:00,
2013-08-01 14:07:00,86.0,69.0,30.02,SW,215,0.0,-999.0,57,-99.99,,,-99.99,,2013-08-01 19:07:00,
2013-08-01 14:48:00,87.0,67.0,30.00,SW,215,0.0,-999.0,52,-99.99,,,-99.99,,2013-08-01 19:48:00,
2013-08-01 14:56:00,88.0,68.0,30.00,SW,215,0.0,-999.0,52,-99.99,,,-99.99,,2013-08-01 19:56:00,
2013-08-01 15:09:00,88.0,68.0,30.00,SW,215,0.0,-999.0,52,-99.99,,,-99.99,,2013-08-01 20:09:00,
2013-08-01 15:17:00,87.0,68.0,29.99,SW,215,0.0,-999.0,54,-99.99,,,-99.99,,2013-08-01 20:17:00,
2013-08-01 15:25:00,88.0,70.0,29.99,SSW,202,0.0,-999.0,55,-99.99,,,-99.99,,2013-08-01 20:25:00,
2013-08-01 15:36:00,88.0,70.0,29.99,SSW,202,0.0,-999.0,55,-99.99,,,-99.99,,2013-08-01 20:36:00,
2013-08-01 15:47:00,88.0,68.0,29.98,SSW,202,0.0,-999.0,52,-99.99,,,-99.99,,2013-08-01 20:47:00,
2013-08-01 15:53:00,88.0,69.0,29.96,SSW,202,0.0,-999.0,54,-99.99,,,-99.99,,2013-08-01 20:53:00,
2013-08-01 16:14:00,89.0,68.0,29.96,SSW,202,0.0,-999.0,50,-99.99,,,-99.99,,2013-08-01 21:14:00,
2013-08-01 16:25:00,89.0,69.0,29.95,SSW,202,0.0,-999.0,52,-99.99,,,-99.99,,2013-08-01 21:25:00,
2013-08-01 16:34:00,89.0,69.0,29.95,SSW,202,0.0,-999.0,52,-99.99,,,-99.99,,2013-08-01 21:34:00,
2013-08-01 16:43:00,89.0,69.0,29.95,SSW,202,0.0,-999.0,52,-99.99,,,-99.99,,2013-08-01 21:43:00,
2013-08-01 16:53:00,89.0,70.0,29.95,SSW,202,0.0,-999.0,54,-99.99,,,-99.99,,2013-08-01 21:53:00,
2013-08-01 17:22:00,88.0,70.0,29.94,SSW,198,0.0,-999.0,56,-99.99,,,-99.99,,2013-08-01 22:22:00,
2013-08-01 17:35:00,88.0,70.0,29.94,SSW,198,0.0,-999.0,56,-99.99,,,-99.99,,2013-08-01 22:35:00,
2013-08-01 17:46:00,88.0,70.0,29.94,South,188,2.0,-999.0,55,-99.99,,,-99.99,,2013-08-01 22:46:00,
2013-08-01 17:53:00,88.0,71.0,29.93,South,188,0.0,-999.0,58,-99.99,,,-99.99,,2013-08-01 22:53:00,
2013-08-01 18:07:00,88.0,71.0,29.93,South,188,0.0,-999.0,58,-99.99,,,-99.99,,2013-08-01 23:07:00,
2013-08-01 18:25:00,87.0,70.0,29.92,South,184,0.0,-999.0,58,-99.99,,,-99.99,,2013-08-01 23:25:00,
2013-08-01 18:32:00,87.0,70.0,29.92,South,184,0.0,-999.0,58,-99.99,,,-99.99,,2013-08-01 23:32:00,
2013-08-01 18:47:00,86.0,69.0,29.92,South,182,0.0,-999.0,57,-99.99,,,-99.99,,2013-08-01 23:47:00,
2013-08-01 19:07:00,86.0,69.0,29.91,South,182,0.0,-999.0,58,-99.99,,,-99.99,,2013-08-02 00:07:00,
2013-08-01 19:17:00,85.0,69.0,29.91,South,182,0.0,-999.0,59,-99.99,,,-99.99,,2013-08-02 00:17:00,
2013-08-01 19:35:00,85.0,70.0,29.91,South,182,0.0,-999.0,62,-99.99,,,-99.99,,2013-08-02 00:35:00,
2013-08-01 19:47:00,84.0,70.0,29.91,South,182,0.0,-999.0,64,-99.99,,,-99.99,,2013-08-02 00:47:00,
2013-08-01 19:54:00,84.0,70.0,29.91,South,182,0.0,-999.0,64,-99.99,,,-99.99,,2013-08-02 00:54:00,
2013-08-01 20:03:00,82.0,69.0,29.90,South,182,0.0,-999.0,65,-99.99,,,-99.99,,2013-08-02 01:03:00,
2013-08-01 20:15:00,81.0,70.0,29.90,South,182,0.0,-999.0,69,-99.99,,,-99.99,,2013-08-02 01:15:00,
2013-08-01 20:25:00,80.0,71.0,29.91,South,182,0.0,-999.0,73,-99.99,,,-99.99,,2013-08-02 01:25:00,
2013-08-01 20:45:00,79.0,70.0,29.90,South,182,0.0,-999.0,75,-99.99,,,-99.99,,2013-08-02 01:45:00,
2013-08-01 20:54:00,79.0,70.0,29.90,South,182,0.0,-999.0,75,-99.99,,,-99.99,,2013-08-02 01:54:00,
2013-08-01 21:06:00,78.0,72.0,29.91,South,182,0.0,-999.0,81,-99.99,,,-99.99,,2013-08-02 02:06:00,
2013-08-01 21:15:00,77.0,71.0,29.91,South,182,0.0,-999.0,83,-99.99,,,-99.99,,2013-08-02 02:15:00,
2013-08-01 21:34:00,76.0,70.0,29.91,South,182,0.0,-999.0,83,-99.99,,,-99.99,,2013-08-02 02:34:00,
2013-08-01 21:44:00,76.0,70.0,29.91,South,182,0.0,-999.0,83,-99.99,,,-99.99,,2013-08-02 02:44:00,
2013-08-01 21:52:00,76.0,70.0,29.91,South,182,0.0,-999.0,83,-99.99,,,-99.99,,2013-08-02 02:52:00,
2013-08-01 22:12:00,76.0,72.0,29.90,SSW,209,0.0,-999.0,86,-99.99,,,-99.99,,2013-08-02 03:12:00,
2013-08-01 22:23:00,76.0,72.0,29.90,SSW,209,0.0,-999.0,86,-99.99,,,-99.99,,2013-08-02 03:23:00,
2013-08-01 22:59:00,75.0,71.0,29.93,West,260,0.0,-999.0,87,-99.99,,,-99.99,,2013-08-02 03:59:00,
2013-08-01 23:02:00,74.0,71.0,29.93,West,260,0.0,-999.0,90,-99.99,,,-99.99,,2013-08-02 04:02:00,
2013-08-01 23:12:00,74.0,71.0,29.93,West,260,0.0,-999.0,90,-99.99,,,-99.99,,2013-08-02 04:12:00,
2013-08-01 23:22:00,74.0,71.0,29.93,West,260,0.0,-999.0,90,-99.99,,,-99.99,,2013-08-02 04:22:00,
2013-08-01 23:33:00,73.0,70.0,29.97,West,260,0.0,-999.0,91,-99.99,,,-99.99,,2013-08-02 04:33:00,
2013-08-01 23:43:00,73.0,71.0,29.96,West,260,0.0,-999.0,93,-99.99,,,-99.99,,2013-08-02 04:43:00,
2013-08-01 23:53:00,72.0,70.0,29.96,West,260,0.0,-999.0,93,-99.99,,,-99.99,,2013-08-02 04:53:00,